Time,TemperatureF,DewpointF,PressureIn,WindDirection,WindDirectionDegrees,WindSpeedMPH,WindSpeedGustMPH,Humidity,HourlyPrecipIn,Conditions,Clouds,dailyrainin,SoftwareType,DateUTC
2013-07-10 00:01:00,80.5,74.1,29.93,WSW,248,0.0,0.0,81,0.00,CLR,,0.00,WeatherDisplay:10.37,2013-07-10 05:01:00,
2013-07-10 00:06:00,80.5,74.1,29.93,West,259,1.1,0.0,81,0.00,CLR,,0.00,WeatherDisplay:10.37,2013-07-10 05:06:00,
2013-07-10 00:11:00,80.5,74.1,29.93,West,259,0.0,0.0,81,0.00,CLR,,0.00,WeatherDisplay:10.37,2013-07-10 05:11:00,
2013-07-10 00:16:00,80.6,74.2,29.92,West,259,0.0,0.0,81,0.00,CLR,,0.00,WeatherDisplay:10.37,2013-07-10 05:16:00,
2013-07-10 00:21:00,80.6,73.9,29.92,West,259,0.0,0.0,80,0.00,CLR,,0.00,WeatherDisplay:10.37,2013-07-10 05:21:00,
2013-07-10 00:26:00,80.7,74.0,29.93,West,259,0.0,0.0,80,0.00,CLR,,0.00,WeatherDisplay:10.37,2013-07-10 05:26:00,
2013-07-10 00:31:00,80.8,74.0,29.92,West,259,0.0,0.0,80,0.00,CLR,,0.00,WeatherDisplay:10.37,2013-07-10 05:31:00,
2013-07-10 00:36:00,80.9,74.1,29.92,West,264,0.0,0.0,80,0.00,CLR,,0.00,WeatherDisplay:10.37,2013-07-10 05:36:00,
2013-07-10 00:42:00,80.9,74.1,29.93,West,264,0.0,0.0,80,0.00,CLR,,0.00,WeatherDisplay:10.37,2013-07-10 05:42:00,
2013-07-10 00:47:00,80.9,73.8,29.92,WSW,252,0.0,0.0,79,0.00,CLR,,0.00,WeatherDisplay:10.37,2013-07-10 05:47:00,
2013-07-10 00:52:00,81.0,73.9,29.92,WSW,244,0.0,0.1,79,0.00,CLR,,0.00,WeatherDisplay:10.37,2013-07-10 05:52:00,
2013-07-10 00:57:00,80.9,73.8,29.92,WSW,240,2.3,2.3,79,0.00,CLR,,0.00,WeatherDisplay:10.37,2013-07-10 05:57:00,
2013-07-10 01:02:00,80.8,73.7,29.92,SSW,209,0.0,0.0,79,0.00,CLR,,0.00,WeatherDisplay:10.37,2013-07-10 06:02:00,
2013-07-10 01:07:00,80.8,74.0,29.92,SSW,210,1.1,1.1,80,0.00,CLR,,0.00,WeatherDisplay:10.37,2013-07-10 06:07:00,
2013-07-10 01:12:00,80.8,74.0,29.92,SSW,210,0.0,0.0,80,0.00,CLR,,0.00,WeatherDisplay:10.37,2013-07-10 06:12:00,
2013-07-10 01:17:00,80.7,74.0,29.91,SW,230,2.3,2.3,80,0.00,CLR,,0.00,WeatherDisplay:10.37,2013-07-10 06:17:00,
2013-07-10 01:22:00,80.7,74.0,29.91,SW,225,3.5,3.5,80,0.00,CLR,,0.00,WeatherDisplay:10.37,2013-07-10 06:22:00,
2013-07-10 01:27:00,80.6,73.9,29.91,SSW,198,5.8,5.8,80,0.00,CLR,,0.00,WeatherDisplay:10.37,2013-07-10 06:27:00,
2013-07-10 01:32:00,80.6,73.9,29.91,SW,232,1.1,1.1,80,0.00,CLR,,0.00,WeatherDisplay:10.37,2013-07-10 06:32:00,
2013-07-10 01:37:00,80.5,74.1,29.91,WSW,241,1.1,1.1,81,0.00,CLR,,0.00,WeatherDisplay:10.37,2013-07-10 06:37:00,
2013-07-10 01:42:00,80.6,74.2,29.91,WNW,284,0.0,0.0,81,0.00,CLR,,0.00,WeatherDisplay:10.37,2013-07-10 06:42:00,
2013-07-10 01:47:00,80.5,74.1,29.91,SW,215,1.0,0.0,81,0.00,CLR,,0.00,WeatherDisplay:10.37,2013-07-10 06:47:00,
2013-07-10 01:52:00,80.5,74.1,29.91,SW,228,0.0,0.0,81,0.00,CLR,,0.00,WeatherDisplay:10.37,2013-07-10 06:52:00,
2013-07-10 01:57:00,80.5,74.1,29.91,WSW,255,4.0,4.0,81,0.00,CLR,,0.00,WeatherDisplay:10.37,2013-07-10 06:57:00,
2013-07-10 02:02:00,80.4,74.0,29.91,WSW,240,2.3,2.3,81,0.00,CLR,,0.00,WeatherDisplay:10.37,2013-07-10 07:02:00,
2013-07-10 02:07:00,80.4,74.0,29.91,SW,228,5.8,5.8,81,0.00,CLR,,0.00,WeatherDisplay:10.37,2013-07-10 07:07:00,
2013-07-10 02:12:00,80.3,74.3,29.91,SW,219,3.5,3.5,82,0.00,CLR,,0.00,WeatherDisplay:10.37,2013-07-10 07:12:00,
2013-07-10 02:17:00,80.3,74.3,29.91,SW,233,2.0,2.0,82,0.00,CLR,,0.00,WeatherDisplay:10.37,2013-07-10 07:17:00,
2013-07-10 02:22:00,80.3,74.3,29.91,WSW,250,0.0,0.0,82,0.00,CLR,,0.00,WeatherDisplay:10.37,2013-07-10 07:22:00,
2013-07-10 02:27:00,80.3,74.3,29.91,SW,214,1.1,1.1,82,0.00,CLR,,0.00,WeatherDisplay:10.37,2013-07-10 07:27:00,
2013-07-10 02:32:00,80.2,74.2,29.91,SW,229,3.5,3.5,82,0.00,CLR,,0.00,WeatherDisplay:10.37,2013-07-10 07:32:00,
2013-07-10 02:37:00,80.2,74.2,29.91,WSW,244,3.5,3.5,82,0.00,CLR,,0.00,WeatherDisplay:10.37,2013-07-10 07:37:00,
2013-07-10 02:42:00,80.2,74.2,29.92,SW,215,0.0,0.0,82,0.00,CLR,,0.00,WeatherDisplay:10.37,2013-07-10 07:42:00,
2013-07-10 02:47:00,80.2,74.6,29.92,SW,233,3.5,3.5,83,0.00,CLR,,0.00,WeatherDisplay:10.37,2013-07-10 07:47:00,
2013-07-10 02:52:00,80.2,74.6,29.92,SW,230,2.0,2.0,83,0.00,CLR,,0.00,WeatherDisplay:10.37,2013-07-10 07:52:00,
2013-07-10 02:57:00,80.2,74.6,29.91,SW,230,0.0,0.0,83,0.00,CLR,,0.00,WeatherDisplay:10.37,2013-07-10 07:57:00,
2013-07-10 03:02:00,80.2,74.6,29.91,SSW,212,0.0,0.0,83,0.00,CLR,,0.00,WeatherDisplay:10.37,2013-07-10 08:02:00,
2013-07-10 03:07:00,80.1,74.5,29.91,SW,236,0.0,0.0,83,0.00,CLR,,0.00,WeatherDisplay:10.37,2013-07-10 08:07:00,
2013-07-10 03:12:00,80.0,74.4,29.91,WSW,251,0.0,0.0,83,0.00,CLR,,0.00,WeatherDisplay:10.37,2013-07-10 08:12:00,
2013-07-10 03:17:00,80.0,74.4,29.91,WSW,255,0.0,0.0,83,0.00,CLR,,0.00,WeatherDisplay:10.37,2013-07-10 08:17:00,
2013-07-10 03:22:00,79.9,74.6,29.91,WSW,244,0.0,0.0,84,0.00,CLR,,0.00,WeatherDisplay:10.37,2013-07-10 08:22:00,
2013-07-10 03:27:00,79.9,74.6,29.91,WSW,245,0.0,0.0,84,0.00,CLR,,0.00,WeatherDisplay:10.37,2013-07-10 08:27:00,
2013-07-10 03:32:00,79.8,74.5,29.90,WSW,247,0.0,0.0,84,0.00,CLR,,0.00,WeatherDisplay:10.37,2013-07-10 08:32:00,
2013-07-10 03:37:00,79.8,74.5,29.90,West,268,1.1,0.0,84,0.00,CLR,,0.00,WeatherDisplay:10.37,2013-07-10 08:37:00,
2013-07-10 03:42:00,79.7,74.4,29.90,West,268,0.0,0.0,84,0.00,CLR,,0.00,WeatherDisplay:10.37,2013-07-10 08:42:00,
2013-07-10 03:47:00,79.6,74.3,29.90,West,268,0.0,0.0,84,0.00,CLR,,0.00,WeatherDisplay:10.37,2013-07-10 08:47:00,
2013-07-10 03:52:00,79.5,74.2,29.90,West,268,0.0,0.0,84,0.00,CLR,,0.00,WeatherDisplay:10.37,2013-07-10 08:52:00,
2013-07-10 03:57:00,79.4,74.5,29.90,West,268,0.0,0.0,85,0.00,CLR,,0.00,WeatherDisplay:10.37,2013-07-10 08:57:00,
2013-07-10 04:02:00,79.3,74.4,29.90,West,263,0.0,0.0,85,0.00,CLR,,0.00,WeatherDisplay:10.37,2013-07-10 09:02:00,
2013-07-10 04:07:00,79.2,74.3,29.90,West,263,0.0,0.0,85,0.00,CLR,,0.00,WeatherDisplay:10.37,2013-07-10 09:07:00,
2013-07-10 04:12:00,79.0,74.1,29.90,West,263,0.0,0.0,85,0.00,CLR,,0.00,WeatherDisplay:10.37,2013-07-10 09:12:00,
2013-07-10 04:17:00,78.9,74.4,29.90,West,263,0.0,0.0,86,0.00,CLR,,0.00,WeatherDisplay:10.37,2013-07-10 09:17:00,
2013-07-10 04:22:00,78.7,74.2,29.90,SSW,200,0.0,0.0,86,0.00,CLR,,0.00,WeatherDisplay:10.37,2013-07-10 09:22:00,
2013-07-10 04:27:00,78.6,74.1,29.90,SSW,200,0.0,0.0,86,0.00,CLR,,0.00,WeatherDisplay:10.37,2013-07-10 09:27:00,
2013-07-10 04:32:00,78.5,74.0,29.90,SSW,200,0.0,0.0,86,0.00,CLR,,0.00,WeatherDisplay:10.37,2013-07-10 09:32:00,
2013-07-10 04:37:00,78.5,74.3,29.90,SSW,200,0.0,0.0,87,0.00,CLR,,0.00,WeatherDisplay:10.37,2013-07-10 09:37:00,
2013-07-10 04:42:00,78.4,74.2,29.90,SSW,200,0.0,0.0,87,0.00,CLR,,0.00,WeatherDisplay:10.37,2013-07-10 09:42:00,
2013-07-10 04:47:00,78.2,74.0,29.90,SSW,200,0.0,0.0,87,0.00,CLR,,0.00,WeatherDisplay:10.37,2013-07-10 09:47:00,
2013-07-10 04:52:00,78.1,73.9,29.89,SSW,212,0.0,0.0,87,0.00,CLR,,0.00,WeatherDisplay:10.37,2013-07-10 09:52:00,
2013-07-10 04:57:00,78.0,73.8,29.89,SSW,212,0.0,0.0,87,0.00,CLR,,0.00,WeatherDisplay:10.37,2013-07-10 09:57:00,
2013-07-10 05:02:00,77.9,73.7,29.89,SSW,212,0.0,0.1,87,0.00,CLR,,0.00,WeatherDisplay:10.37,2013-07-10 10:02:00,
2013-07-10 05:07:00,77.7,73.9,29.89,SW,231,0.0,0.0,88,0.00,CLR,,0.00,WeatherDisplay:10.37,2013-07-10 10:07:00,
2013-07-10 05:12:00,77.6,73.8,29.89,SW,231,0.0,0.0,88,0.00,CLR,,0.00,WeatherDisplay:10.37,2013-07-10 10:12:00,
2013-07-10 05:17:00,77.6,73.8,29.89,SW,231,0.0,0.0,88,0.00,CLR,,0.00,WeatherDisplay:10.37,2013-07-10 10:17:00,
2013-07-10 05:22:00,77.5,73.7,29.90,SW,231,0.0,0.0,88,0.00,CLR,,0.00,WeatherDisplay:10.37,2013-07-10 10:22:00,
2013-07-10 05:27:00,77.5,73.7,29.90,SW,231,0.0,0.0,88,0.00,CLR,,0.00,WeatherDisplay:10.37,2013-07-10 10:27:00,
2013-07-10 05:32:00,77.4,73.9,29.90,SW,231,0.0,0.0,89,0.00,CLR,,0.00,WeatherDisplay:10.37,2013-07-10 10:32:00,
2013-07-10 05:37:00,77.3,73.8,29.90,SW,231,0.0,0.0,89,0.00,CLR,,0.00,WeatherDisplay:10.37,2013-07-10 10:37:00,
2013-07-10 05:42:00,77.2,73.7,29.89,SW,231,0.0,0.0,89,0.00,CLR,,0.00,WeatherDisplay:10.37,2013-07-10 10:42:00,
2013-07-10 05:47:00,77.1,73.6,29.89,SW,231,0.0,0.0,89,0.00,CLR,,0.00,WeatherDisplay:10.37,2013-07-10 10:47:00,
2013-07-10 05:52:00,77.1,73.6,29.89,SW,231,0.0,0.0,89,0.00,CLR,,0.00,WeatherDisplay:10.37,2013-07-10 10:52:00,
2013-07-10 05:57:00,77.0,73.5,29.89,SW,231,0.0,0.0,89,0.00,CLR,,0.00,WeatherDisplay:10.37,2013-07-10 10:57:00,
2013-07-10 06:02:00,76.9,73.7,29.89,SW,231,0.0,0.0,90,0.00,CLR,,0.00,WeatherDisplay:10.37,2013-07-10 11:02:00,
2013-07-10 06:07:00,76.9,73.7,29.89,SW,226,0.0,0.0,90,0.00,CLR,,0.00,WeatherDisplay:10.37,2013-07-10 11:07:00,
2013-07-10 06:12:00,76.8,73.6,29.90,SSW,200,1.1,0.0,90,0.00,CLR,,0.00,WeatherDisplay:10.37,2013-07-10 11:12:00,
2013-07-10 06:17:00,76.8,73.6,29.90,SW,235,0.0,0.0,90,0.00,CLR,,0.00,WeatherDisplay:10.37,2013-07-10 11:17:00,
2013-07-10 06:22:00,76.8,73.6,29.90,SW,226,1.1,1.1,90,0.00,CLR,,0.00,WeatherDisplay:10.37,2013-07-10 11:22:00,
2013-07-10 06:27:00,76.7,73.5,29.90,SW,225,3.5,3.5,90,0.00,CLR,,0.00,WeatherDisplay:10.37,2013-07-10 11:27:00,
2013-07-10 06:32:00,76.7,73.5,29.91,SW,223,1.1,1.1,90,0.00,CLR,,0.00,WeatherDisplay:10.37,2013-07-10 11:32:00,
2013-07-10 06:37:00,76.7,73.9,29.91,WSW,238,1.1,1.1,91,0.00,CLR,,0.00,WeatherDisplay:10.37,2013-07-10 11:37:00,
2013-07-10 06:42:00,76.8,74.0,29.91,SW,223,1.1,1.1,91,0.00,CLR,,0.00,WeatherDisplay:10.37,2013-07-10 11:42:00,
2013-07-10 06:43:00,76.8,74.0,29.91,SW,223,1.1,1.1,91,0.00,CLR,,0.00,WeatherDisplay:10.37,2013-07-10 11:43:00,
2013-07-10 06:48:00,76.9,74.1,29.92,SSW,211,0.0,0.0,91,0.00,CLR,,0.00,WeatherDisplay:10.37,2013-07-10 11:48:00,
2013-07-10 06:53:00,77.0,74.2,29.92,SW,227,2.3,2.3,91,0.00,CLR,,0.00,WeatherDisplay:10.37,2013-07-10 11:53:00,
2013-07-10 06:58:00,77.2,74.4,29.92,WSW,239,4.6,4.6,91,0.00,CLR,,0.00,WeatherDisplay:10.37,2013-07-10 11:58:00,
2013-07-10 07:03:00,77.4,74.6,29.92,SW,229,5.8,5.8,91,0.00,CLR,,0.00,WeatherDisplay:10.37,2013-07-10 12:03:00,
2013-07-10 07:08:00,77.6,74.8,29.92,WSW,239,3.5,3.5,91,0.00,CLR,,0.00,WeatherDisplay:10.37,2013-07-10 12:08:00,
2013-07-10 07:13:00,77.9,74.7,29.92,WSW,248,4.6,4.6,90,0.00,CLR,,0.00,WeatherDisplay:10.37,2013-07-10 12:13:00,
2013-07-10 07:18:00,78.1,74.9,29.92,WSW,246,4.0,4.0,90,0.00,CLR,,0.00,WeatherDisplay:10.37,2013-07-10 12:18:00,
2013-07-10 07:23:00,78.4,74.9,29.92,SSW,194,3.5,3.5,89,0.00,CLR,,0.00,WeatherDisplay:10.37,2013-07-10 12:23:00,
2013-07-10 07:28:00,78.6,75.1,29.92,SW,226,2.3,2.3,89,0.00,CLR,,0.00,WeatherDisplay:10.37,2013-07-10 12:28:00,
2013-07-10 07:33:00,78.7,75.2,29.92,SSW,211,4.6,4.6,89,0.00,CLR,,0.00,WeatherDisplay:10.37,2013-07-10 12:33:00,
2013-07-10 07:38:00,78.8,74.9,29.92,West,262,3.5,3.5,88,0.00,CLR,,0.00,WeatherDisplay:10.37,2013-07-10 12:38:00,
2013-07-10 07:43:00,79.0,75.1,29.92,WSW,240,3.5,3.5,88,0.00,CLR,,0.00,WeatherDisplay:10.37,2013-07-10 12:43:00,
2013-07-10 07:48:00,79.2,75.3,29.92,WSW,244,3.5,3.5,88,0.00,CLR,,0.00,WeatherDisplay:10.37,2013-07-10 12:48:00,
2013-07-10 07:53:00,79.4,75.5,29.92,WSW,242,5.0,5.0,88,0.00,CLR,,0.00,WeatherDisplay:10.37,2013-07-10 12:53:00,
2013-07-10 07:58:00,79.8,75.9,29.92,SW,217,8.0,8.0,88,0.00,CLR,,0.00,WeatherDisplay:10.37,2013-07-10 12:58:00,
2013-07-10 08:03:00,80.2,76.0,29.92,WSW,239,6.9,6.9,87,0.00,CLR,,0.00,WeatherDisplay:10.37,2013-07-10 13:03:00,
2013-07-10 08:08:00,80.5,76.3,29.92,WSW,257,5.8,5.8,87,0.00,CLR,,0.00,WeatherDisplay:10.37,2013-07-10 13:08:00,
2013-07-10 08:13:00,80.7,76.1,29.91,SW,223,4.6,4.6,86,0.00,CLR,,0.00,WeatherDisplay:10.37,2013-07-10 13:13:00,
2013-07-10 08:18:00,81.0,76.4,29.91,SW,224,6.9,6.9,86,0.00,CLR,,0.00,WeatherDisplay:10.37,2013-07-10 13:18:00,
2013-07-10 08:23:00,81.2,76.3,29.92,West,267,8.1,8.1,85,0.00,CLR,,0.00,WeatherDisplay:10.37,2013-07-10 13:23:00,
2013-07-10 08:28:00,81.3,76.0,29.92,SW,215,6.0,6.0,84,0.00,CLR,,0.00,WeatherDisplay:10.37,2013-07-10 13:28:00,
2013-07-10 08:33:00,81.3,76.0,29.92,WSW,242,3.5,3.5,84,0.00,CLR,,0.00,WeatherDisplay:10.37,2013-07-10 13:33:00,
2013-07-10 08:38:00,81.5,76.2,29.92,WSW,243,4.6,4.6,84,0.00,CLR,,0.00,WeatherDisplay:10.37,2013-07-10 13:38:00,
2013-07-10 08:43:00,81.5,76.2,29.92,SW,221,4.6,4.6,84,0.00,CLR,,0.00,WeatherDisplay:10.37,2013-07-10 13:43:00,
2013-07-10 08:48:00,81.5,75.8,29.92,SW,222,3.5,3.5,83,0.00,CLR,,0.00,WeatherDisplay:10.37,2013-07-10 13:48:00,
2013-07-10 08:53:00,81.5,76.2,29.92,SW,236,4.6,4.6,84,0.00,CLR,,0.00,WeatherDisplay:10.37,2013-07-10 13:53:00,
2013-07-10 08:58:00,81.6,76.3,29.92,SSW,208,3.5,3.5,84,0.00,CLR,,0.00,WeatherDisplay:10.37,2013-07-10 13:58:00,
2013-07-10 09:03:00,81.8,76.5,29.91,WSW,242,3.5,3.5,84,0.00,CLR,,0.00,WeatherDisplay:10.37,2013-07-10 14:03:00,
2013-07-10 09:08:00,81.9,76.6,29.91,SW,234,3.5,3.5,84,0.00,CLR,,0.00,WeatherDisplay:10.37,2013-07-10 14:08:00,
2013-07-10 09:13:00,82.1,76.8,29.91,WSW,253,4.6,4.6,84,0.00,CLR,,0.00,WeatherDisplay:10.37,2013-07-10 14:13:00,
2013-07-10 09:18:00,82.3,76.6,29.91,SW,227,5.0,5.0,83,0.00,CLR,,0.00,WeatherDisplay:10.37,2013-07-10 14:18:00,
2013-07-10 09:23:00,82.5,76.8,29.90,WSW,251,4.0,4.0,83,0.00,CLR,,0.00,WeatherDisplay:10.37,2013-07-10 14:23:00,
2013-07-10 09:28:00,82.8,77.1,29.90,SW,231,4.6,4.6,83,0.00,CLR,,0.00,WeatherDisplay:10.37,2013-07-10 14:28:00,
2013-07-10 09:33:00,82.8,76.7,29.90,SSW,201,5.8,5.8,82,0.00,CLR,,0.00,WeatherDisplay:10.37,2013-07-10 14:33:00,
2013-07-10 09:38:00,82.8,76.4,29.90,SW,225,6.9,6.9,81,0.00,CLR,,0.00,WeatherDisplay:10.37,2013-07-10 14:38:00,
2013-07-10 09:43:00,82.8,76.4,29.90,SSW,202,4.6,4.6,81,0.00,CLR,,0.00,WeatherDisplay:10.37,2013-07-10 14:43:00,
2013-07-10 09:48:00,82.8,76.7,29.90,WSW,242,6.9,6.9,82,0.00,CLR,,0.00,WeatherDisplay:10.37,2013-07-10 14:48:00,
2013-07-10 09:53:00,82.8,76.0,29.90,WSW,250,10.4,10.4,80,0.00,CLR,,0.00,WeatherDisplay:10.37,2013-07-10 14:53:00,
2013-07-10 09:58:00,82.8,76.4,29.90,West,264,6.9,6.9,81,0.00,CLR,,0.00,WeatherDisplay:10.37,2013-07-10 14:58:00,
2013-07-10 10:03:00,83.0,76.6,29.90,WSW,246,4.0,4.0,81,0.00,CLR,,0.00,WeatherDisplay:10.37,2013-07-10 15:03:00,
2013-07-10 10:08:00,83.1,76.7,29.90,SSW,209,3.5,3.5,81,0.00,CLR,,0.00,WeatherDisplay:10.37,2013-07-10 15:08:00,
2013-07-10 10:13:00,83.3,76.9,29.91,SW,229,4.0,4.0,81,0.00,CLR,,0.00,WeatherDisplay:10.37,2013-07-10 15:13:00,
2013-07-10 10:18:00,83.5,76.7,29.91,West,259,6.9,6.9,80,0.00,CLR,,0.00,WeatherDisplay:10.37,2013-07-10 15:18:00,
2013-07-10 10:23:00,83.8,77.0,29.91,WSW,246,4.6,4.6,80,0.00,CLR,,0.00,WeatherDisplay:10.37,2013-07-10 15:23:00,
2013-07-10 10:28:00,84.0,77.2,29.92,SW,222,7.0,7.0,80,0.00,CLR,,0.00,WeatherDisplay:10.37,2013-07-10 15:28:00,
2013-07-10 10:33:00,84.1,76.5,29.92,West,281,5.0,5.0,78,0.00,CLR,,0.00,WeatherDisplay:10.37,2013-07-10 15:33:00,
2013-07-10 10:38:00,84.2,76.6,29.92,WSW,238,5.0,5.0,78,0.00,CLR,,0.00,WeatherDisplay:10.37,2013-07-10 15:38:00,
2013-07-10 10:43:00,84.4,76.8,29.92,SW,225,9.2,9.2,78,0.00,CLR,,0.00,WeatherDisplay:10.37,2013-07-10 15:43:00,
2013-07-10 10:48:00,84.6,76.6,29.93,West,261,8.1,8.1,77,0.00,CLR,,0.00,WeatherDisplay:10.37,2013-07-10 15:48:00,
2013-07-10 10:53:00,84.8,77.2,29.92,SW,226,8.1,8.1,78,0.00,CLR,,0.00,WeatherDisplay:10.37,2013-07-10 15:53:00,
2013-07-10 10:58:00,84.9,77.3,29.92,SW,235,5.8,5.8,78,0.00,CLR,,0.00,WeatherDisplay:10.37,2013-07-10 15:58:00,
2013-07-10 11:03:00,85.0,77.0,29.92,SW,236,4.0,4.0,77,0.00,CLR,,0.00,WeatherDisplay:10.37,2013-07-10 16:03:00,
2013-07-10 11:08:00,84.9,76.9,29.93,WSW,252,6.0,6.0,77,0.00,CLR,,0.00,WeatherDisplay:10.37,2013-07-10 16:08:00,
2013-07-10 11:13:00,84.4,75.6,29.93,West,259,6.9,6.9,75,0.00,CLR,,0.00,WeatherDisplay:10.37,2013-07-10 16:13:00,
2013-07-10 11:18:00,84.1,75.7,29.93,WSW,257,5.8,5.8,76,0.00,CLR,,0.00,WeatherDisplay:10.37,2013-07-10 16:18:00,
2013-07-10 11:23:00,83.6,75.6,29.93,West,269,5.8,5.8,77,0.00,CLR,,0.00,WeatherDisplay:10.37,2013-07-10 16:23:00,
2013-07-10 11:28:00,83.4,75.0,29.93,WSW,257,9.2,9.2,76,0.00,CLR,,0.00,WeatherDisplay:10.37,2013-07-10 16:28:00,
2013-07-10 11:33:00,83.2,75.2,29.93,SW,225,6.9,6.9,77,0.00,CLR,,0.00,WeatherDisplay:10.37,2013-07-10 16:33:00,
2013-07-10 11:38:00,83.4,75.8,29.93,West,266,5.8,5.8,78,0.00,CLR,,0.00,WeatherDisplay:10.37,2013-07-10 16:38:00,
2013-07-10 11:43:00,83.8,76.2,29.94,WSW,248,6.9,6.9,78,0.00,CLR,,0.00,WeatherDisplay:10.37,2013-07-10 16:43:00,
2013-07-10 11:48:00,84.2,75.8,29.94,WSW,258,11.5,11.5,76,0.00,CLR,,0.00,WeatherDisplay:10.37,2013-07-10 16:48:00,
2013-07-10 11:53:00,84.9,76.5,29.94,WSW,238,8.1,8.1,76,0.00,CLR,,0.00,WeatherDisplay:10.37,2013-07-10 16:53:00,
2013-07-10 11:58:00,85.2,75.6,29.94,WSW,241,6.9,6.9,73,0.00,CLR,,0.00,WeatherDisplay:10.37,2013-07-10 16:58:00,
2013-07-10 12:03:00,85.2,75.1,29.94,West,276,8.1,8.1,72,0.00,CLR,,0.00,WeatherDisplay:10.37,2013-07-10 17:03:00,
2013-07-10 12:08:00,85.2,75.6,29.94,SW,229,7.0,7.0,73,0.00,CLR,,0.00,WeatherDisplay:10.37,2013-07-10 17:08:00,
2013-07-10 12:14:00,85.3,75.2,29.93,SW,224,6.9,6.9,72,0.00,CLR,,0.00,WeatherDisplay:10.37,2013-07-10 17:14:00,
2013-07-10 12:19:00,85.6,75.5,29.93,West,261,6.9,6.9,72,0.00,CLR,,0.00,WeatherDisplay:10.37,2013-07-10 17:19:00,
2013-07-10 12:24:00,85.6,75.1,29.93,SW,235,5.8,5.8,71,0.00,CLR,,0.00,WeatherDisplay:10.37,2013-07-10 17:24:00,
2013-07-10 12:29:00,85.6,74.7,29.93,SSW,210,3.5,3.5,70,0.00,CLR,,0.00,WeatherDisplay:10.37,2013-07-10 17:29:00,
2013-07-10 12:34:00,85.6,74.7,29.93,West,272,5.8,5.8,70,0.00,CLR,,0.00,WeatherDisplay:10.37,2013-07-10 17:34:00,
2013-07-10 12:39:00,85.4,74.5,29.92,WSW,238,3.5,3.5,70,0.00,CLR,,0.00,WeatherDisplay:10.37,2013-07-10 17:39:00,
2013-07-10 12:44:00,85.3,75.2,29.92,WSW,257,3.5,3.5,72,0.00,CLR,,0.00,WeatherDisplay:10.37,2013-07-10 17:44:00,
2013-07-10 12:49:00,85.3,74.4,29.91,SSW,208,0.0,0.0,70,0.00,CLR,,0.00,WeatherDisplay:10.37,2013-07-10 17:49:00,
2013-07-10 12:54:00,85.3,75.7,29.91,WSW,247,3.5,3.5,73,0.00,CLR,,0.00,WeatherDisplay:10.37,2013-07-10 17:54:00,
2013-07-10 12:59:00,85.5,76.3,29.91,SW,228,1.1,0.0,74,0.00,CLR,,0.00,WeatherDisplay:10.37,2013-07-10 17:59:00,
2013-07-10 13:04:00,85.4,75.3,29.91,WSW,250,3.5,3.5,72,0.00,CLR,,0.00,WeatherDisplay:10.37,2013-07-10 18:04:00,
2013-07-10 13:09:00,85.0,75.0,29.91,SW,215,3.5,3.5,72,0.00,CLR,,0.00,WeatherDisplay:10.37,2013-07-10 18:09:00,
2013-07-10 13:14:00,84.9,74.9,29.91,WSW,239,1.1,1.1,72,0.00,CLR,,0.00,WeatherDisplay:10.37,2013-07-10 18:14:00,
2013-07-10 13:19:00,85.0,75.8,29.91,WSW,252,2.3,2.3,74,0.00,CLR,,0.00,WeatherDisplay:10.37,2013-07-10 18:19:00,
2013-07-10 13:24:00,85.0,75.8,29.90,SW,214,2.3,2.3,74,0.00,CLR,,0.00,WeatherDisplay:10.37,2013-07-10 18:24:00,
2013-07-10 13:29:00,85.0,75.4,29.90,SW,225,0.0,0.0,73,0.00,CLR,,0.00,WeatherDisplay:10.37,2013-07-10 18:29:00,
2013-07-10 13:34:00,85.1,75.9,29.90,SW,225,0.0,0.0,74,0.00,CLR,,0.00,WeatherDisplay:10.37,2013-07-10 18:34:00,
2013-07-10 13:39:00,85.2,76.0,29.90,SW,225,0.0,0.0,74,0.00,CLR,,0.00,WeatherDisplay:10.37,2013-07-10 18:39:00,
2013-07-10 13:44:00,85.3,75.7,29.90,SW,225,0.0,0.0,73,0.00,CLR,,0.00,WeatherDisplay:10.37,2013-07-10 18:44:00,
2013-07-10 13:49:00,85.2,75.6,29.90,SW,225,0.0,0.0,73,0.00,CLR,,0.00,WeatherDisplay:10.37,2013-07-10 18:49:00,
2013-07-10 13:54:00,85.1,75.9,29.89,East,95,1.1,1.1,74,0.00,CLR,,0.00,WeatherDisplay:10.37,2013-07-10 18:54:00,
2013-07-10 13:59:00,85.2,75.6,29.88,East,97,1.1,1.1,73,0.00,CLR,,0.00,WeatherDisplay:10.37,2013-07-10 18:59:00,
2013-07-10 14:04:00,85.2,76.4,29.87,ESE,106,2.3,2.3,75,0.00,CLR,,0.00,WeatherDisplay:10.37,2013-07-10 19:04:00,
2013-07-10 14:09:00,85.1,75.5,29.87,East,80,0.0,0.0,73,0.00,CLR,,0.00,WeatherDisplay:10.37,2013-07-10 19:09:00,
2013-07-10 14:14:00,85.2,76.8,29.87,NE,54,1.1,0.0,76,0.00,CLR,,0.00,WeatherDisplay:10.37,2013-07-10 19:14:00,
2013-07-10 14:19:00,85.2,76.0,29.87,West,268,0.0,0.0,74,0.00,CLR,,0.00,WeatherDisplay:10.37,2013-07-10 19:19:00,
2013-07-10 14:24:00,85.2,75.6,29.88,West,270,3.5,3.5,73,0.00,CLR,,0.00,WeatherDisplay:10.37,2013-07-10 19:24:00,
2013-07-10 14:29:00,85.6,76.8,29.88,West,269,3.5,3.5,75,0.00,CLR,,0.00,WeatherDisplay:10.37,2013-07-10 19:29:00,
2013-07-10 14:34:00,86.1,77.6,29.88,West,263,3.5,3.5,76,0.00,CLR,,0.00,WeatherDisplay:10.37,2013-07-10 19:34:00,
2013-07-10 14:39:00,86.5,77.2,29.88,West,269,1.1,0.0,74,0.00,CLR,,0.00,WeatherDisplay:10.37,2013-07-10 19:39:00,
2013-07-10 14:44:00,87.0,77.3,29.87,WSW,254,3.5,3.5,73,0.00,CLR,,0.00,WeatherDisplay:10.37,2013-07-10 19:44:00,
2013-07-10 14:49:00,87.5,76.5,29.87,West,270,3.5,3.5,70,0.00,CLR,,0.00,WeatherDisplay:10.37,2013-07-10 19:49:00,
2013-07-10 14:54:00,88.0,77.8,29.86,WSW,244,3.5,3.5,72,0.00,CLR,,0.00,WeatherDisplay:10.37,2013-07-10 19:54:00,
2013-07-10 14:59:00,88.8,78.6,29.86,WSW,248,4.0,4.0,72,0.00,CLR,,0.00,WeatherDisplay:10.37,2013-07-10 19:59:00,
2013-07-10 15:04:00,89.4,77.4,29.86,WSW,252,3.5,3.5,68,0.00,CLR,,0.00,WeatherDisplay:10.37,2013-07-10 20:04:00,
2013-07-10 15:09:00,89.9,77.9,29.86,WSW,258,5.8,5.8,68,0.00,CLR,,0.00,WeatherDisplay:10.37,2013-07-10 20:09:00,
2013-07-10 15:14:00,90.4,77.9,29.85,WSW,244,6.9,6.9,67,0.00,CLR,,0.00,WeatherDisplay:10.37,2013-07-10 20:14:00,
2013-07-10 15:19:00,90.6,77.7,29.85,SSW,202,5.8,5.8,66,0.00,CLR,,0.00,WeatherDisplay:10.37,2013-07-10 20:19:00,
2013-07-10 15:24:00,90.5,77.6,29.85,WNW,293,7.0,7.0,66,0.00,CLR,,0.00,WeatherDisplay:10.37,2013-07-10 20:24:00,
2013-07-10 15:29:00,90.6,78.1,29.86,WSW,250,5.8,5.8,67,0.00,CLR,,0.00,WeatherDisplay:10.37,2013-07-10 20:29:00,
2013-07-10 15:34:00,90.7,76.4,29.85,WSW,238,10.4,10.4,63,0.00,CLR,,0.00,WeatherDisplay:10.37,2013-07-10 20:34:00,
2013-07-10 15:39:00,90.6,76.3,29.85,WNW,292,8.0,8.0,63,0.00,CLR,,0.00,WeatherDisplay:10.37,2013-07-10 20:39:00,
2013-07-10 15:44:00,90.6,75.8,29.85,WSW,246,9.2,9.2,62,0.00,CLR,,0.00,WeatherDisplay:10.37,2013-07-10 20:44:00,
2013-07-10 15:49:00,90.5,75.2,29.85,West,279,9.2,9.2,61,0.00,CLR,,0.00,WeatherDisplay:10.37,2013-07-10 20:49:00,
2013-07-10 15:54:00,90.8,76.9,29.85,West,271,9.0,9.0,64,0.00,CLR,,0.00,WeatherDisplay:10.37,2013-07-10 20:54:00,
2013-07-10 15:59:00,90.9,75.6,29.85,West,278,5.8,5.8,61,0.00,CLR,,0.00,WeatherDisplay:10.37,2013-07-10 20:59:00,
2013-07-10 16:04:00,91.1,75.3,29.84,West,268,8.1,8.1,60,0.00,CLR,,0.00,WeatherDisplay:10.37,2013-07-10 21:04:00,
2013-07-10 16:09:00,91.0,74.2,29.84,WSW,240,9.2,9.2,58,0.00,CLR,,0.00,WeatherDisplay:10.37,2013-07-10 21:09:00,
2013-07-10 16:14:00,91.1,75.3,29.84,WSW,242,3.5,3.5,60,0.00,CLR,,0.00,WeatherDisplay:10.37,2013-07-10 21:14:00,
2013-07-10 16:19:00,91.3,76.5,29.84,West,276,8.0,8.0,62,0.00,CLR,,0.00,WeatherDisplay:10.37,2013-07-10 21:19:00,
2013-07-10 16:24:00,91.3,72.9,29.84,West,259,6.0,10.0,55,0.00,CLR,,0.00,WeatherDisplay:10.37,2013-07-10 21:24:00,
2013-07-10 16:29:00,91.0,72.0,29.83,NW,322,5.8,5.8,54,0.00,CLR,,0.00,WeatherDisplay:10.37,2013-07-10 21:29:00,
2013-07-10 16:34:00,90.6,72.8,29.83,WNW,290,1.0,4.0,56,0.00,CLR,,0.00,WeatherDisplay:10.37,2013-07-10 21:34:00,
2013-07-10 16:40:00,90.2,73.4,29.83,West,272,2.3,2.3,58,0.00,CLR,,0.00,WeatherDisplay:10.37,2013-07-10 21:40:00,
2013-07-10 16:45:00,90.2,73.9,29.83,West,279,1.0,4.0,59,0.00,CLR,,0.00,WeatherDisplay:10.37,2013-07-10 21:45:00,
2013-07-10 16:49:00,90.6,75.3,29.83,West,260,7.0,9.0,61,0.00,CLR,,0.00,WeatherDisplay:10.37,2013-07-10 21:49:00,
2013-07-10 16:55:00,90.6,74.3,29.83,West,262,2.0,9.0,59,0.00,CLR,,0.00,WeatherDisplay:10.37,2013-07-10 21:55:00,
2013-07-10 16:59:00,90.6,74.3,29.83,West,267,8.1,8.1,59,0.00,CLR,,0.00,WeatherDisplay:10.37,2013-07-10 21:59:00,
2013-07-10 17:05:00,90.5,73.2,29.84,North,351,1.1,0.0,57,0.00,CLR,,0.00,WeatherDisplay:10.37,2013-07-10 22:05:00,
2013-07-10 17:10:00,90.3,73.5,29.84,NW,318,1.0,4.0,58,0.00,CLR,,0.00,WeatherDisplay:10.37,2013-07-10 22:10:00,
2013-07-10 17:14:00,90.0,74.2,29.84,NW,319,1.1,1.1,60,0.00,CLR,,0.00,WeatherDisplay:10.37,2013-07-10 22:14:00,
2013-07-10 17:19:00,89.8,74.5,29.84,NW,308,1.0,6.0,61,0.00,CLR,,0.00,WeatherDisplay:10.37,2013-07-10 22:19:00,
2013-07-10 17:24:00,89.2,74.0,29.84,WSW,255,5.8,5.8,61,0.00,CLR,,0.00,WeatherDisplay:10.37,2013-07-10 22:24:00,
2013-07-10 17:29:00,89.0,74.8,29.84,West,281,5.8,5.8,63,0.00,CLR,,0.00,WeatherDisplay:10.37,2013-07-10 22:29:00,
2013-07-10 17:34:00,89.2,75.9,29.83,WNW,282,3.0,5.0,65,0.00,CLR,,0.00,WeatherDisplay:10.37,2013-07-10 22:34:00,
2013-07-10 17:39:00,89.6,75.8,29.84,West,267,2.3,2.3,64,0.00,CLR,,0.00,WeatherDisplay:10.37,2013-07-10 22:39:00,
2013-07-10 17:44:00,90.1,75.8,29.84,West,277,2.3,2.3,63,0.00,CLR,,0.00,WeatherDisplay:10.37,2013-07-10 22:44:00,
2013-07-10 17:50:00,90.5,77.2,29.83,WSW,254,2.0,5.0,65,0.00,CLR,,0.00,WeatherDisplay:10.37,2013-07-10 22:50:00,
2013-07-10 17:54:00,90.9,75.6,29.83,WNW,282,6.0,6.0,61,0.00,CLR,,0.00,WeatherDisplay:10.37,2013-07-10 22:54:00,
2013-07-10 18:00:00,91.2,75.9,29.84,WSW,237,3.5,3.5,61,0.00,CLR,,0.00,WeatherDisplay:10.37,2013-07-10 23:00:00,
2013-07-10 18:04:00,91.3,75.5,29.83,West,259,3.0,5.0,60,0.00,CLR,,0.00,WeatherDisplay:10.37,2013-07-10 23:04:00,
2013-07-10 18:09:00,91.2,73.8,29.84,WSW,256,3.5,3.5,57,0.00,CLR,,0.00,WeatherDisplay:10.37,2013-07-10 23:09:00,
2013-07-10 18:14:00,91.1,75.3,29.84,West,274,0.0,3.0,60,0.00,CLR,,0.00,WeatherDisplay:10.37,2013-07-10 23:14:00,
2013-07-10 18:19:00,90.9,74.1,29.84,WSW,246,2.3,2.3,58,0.00,CLR,,0.00,WeatherDisplay:10.37,2013-07-10 23:19:00,
2013-07-10 18:24:00,90.9,75.1,29.84,WSW,253,3.5,3.5,60,0.00,CLR,,0.00,WeatherDisplay:10.37,2013-07-10 23:24:00,
2013-07-10 18:29:00,91.1,75.3,29.84,West,267,0.0,4.0,60,0.00,CLR,,0.00,WeatherDisplay:10.37,2013-07-10 23:29:00,
2013-07-10 18:34:00,91.1,73.7,29.84,NW,323,2.3,2.3,57,0.00,CLR,,0.00,WeatherDisplay:10.37,2013-07-10 23:34:00,
2013-07-10 18:39:00,90.8,73.5,29.84,NW,309,2.3,2.3,57,0.00,CLR,,0.00,WeatherDisplay:10.37,2013-07-10 23:39:00,
2013-07-10 18:45:00,90.5,73.7,29.84,NW,317,0.0,2.0,58,0.00,CLR,,0.00,WeatherDisplay:10.37,2013-07-10 23:45:00,
2013-07-10 18:49:00,90.2,73.9,29.84,NW,318,0.0,2.0,59,0.00,CLR,,0.00,WeatherDisplay:10.37,2013-07-10 23:49:00,
2013-07-10 18:54:00,89.9,73.7,29.84,NW,316,0.0,2.0,59,0.00,CLR,,0.00,WeatherDisplay:10.37,2013-07-10 23:54:00,
2013-07-10 18:59:00,89.6,73.4,29.84,NW,319,2.3,2.3,59,0.00,CLR,,0.00,WeatherDisplay:10.37,2013-07-10 23:59:00,
2013-07-10 19:04:00,89.6,73.9,29.84,NW,319,0.0,0.0,60,0.00,CLR,,0.00,WeatherDisplay:10.37,2013-07-11 00:04:00,
2013-07-10 19:05:00,89.6,73.9,29.84,NW,319,0.0,0.0,60,0.00,CLR,,0.00,WeatherDisplay:10.37,2013-07-11 00:05:00,
2013-07-10 19:10:00,89.1,73.4,29.84,NW,319,0.0,0.0,60,0.00,CLR,,0.00,WeatherDisplay:10.37,2013-07-11 00:10:00,
2013-07-10 19:15:00,88.8,73.6,29.84,NW,319,1.1,0.0,61,0.00,CLR,,0.00,WeatherDisplay:10.37,2013-07-11 00:15:00,
2013-07-10 19:20:00,88.6,75.3,29.84,NW,319,0.0,0.0,65,0.00,CLR,,0.00,WeatherDisplay:10.37,2013-07-11 00:20:00,
2013-07-10 19:25:00,88.1,73.9,29.84,NW,319,0.0,0.0,63,0.00,CLR,,0.00,WeatherDisplay:10.37,2013-07-11 00:25:00,
2013-07-10 19:30:00,87.8,74.1,29.84,NW,319,0.0,0.0,64,0.00,CLR,,0.00,WeatherDisplay:10.37,2013-07-11 00:30:00,
2013-07-10 19:35:00,87.5,74.3,29.84,NW,319,0.0,0.0,65,0.00,CLR,,0.00,WeatherDisplay:10.37,2013-07-11 00:35:00,
2013-07-10 19:40:00,87.2,74.0,29.85,NW,319,0.0,0.0,65,0.00,CLR,,0.00,WeatherDisplay:10.37,2013-07-11 00:40:00,
2013-07-10 19:45:00,86.9,75.1,29.85,NW,319,0.0,0.0,68,0.00,CLR,,0.00,WeatherDisplay:10.37,2013-07-11 00:45:00,
2013-07-10 19:50:00,86.6,75.6,29.85,NW,319,0.0,0.0,70,0.00,CLR,,0.00,WeatherDisplay:10.37,2013-07-11 00:50:00,
2013-07-10 19:55:00,86.2,75.3,29.85,NW,319,0.0,0.0,70,0.00,CLR,,0.00,WeatherDisplay:10.37,2013-07-11 00:55:00,
2013-07-10 20:00:00,85.5,74.6,29.85,NW,319,0.0,0.0,70,0.00,CLR,,0.00,WeatherDisplay:10.37,2013-07-11 01:00:00,
2013-07-10 20:05:00,84.4,74.0,29.85,NW,319,0.0,0.0,71,0.00,CLR,,0.00,WeatherDisplay:10.37,2013-07-11 01:05:00,
2013-07-10 20:10:00,83.7,74.1,29.85,NW,319,0.0,0.0,73,0.00,CLR,,0.00,WeatherDisplay:10.37,2013-07-11 01:10:00,
2013-07-10 20:15:00,83.3,74.9,29.86,NW,319,0.0,0.0,76,0.00,CLR,,0.00,WeatherDisplay:10.37,2013-07-11 01:15:00,
2013-07-10 20:20:00,82.9,75.3,29.86,NW,319,0.0,0.0,78,0.00,CLR,,0.00,WeatherDisplay:10.37,2013-07-11 01:20:00,
2013-07-10 20:25:00,82.5,74.9,29.86,NW,319,0.0,0.0,78,0.00,CLR,,0.00,WeatherDisplay:10.37,2013-07-11 01:25:00,
2013-07-10 20:30:00,82.3,75.1,29.86,NW,319,0.0,0.0,79,0.00,CLR,,0.00,WeatherDisplay:10.37,2013-07-11 01:30:00,
2013-07-10 20:35:00,82.0,75.6,29.87,NW,319,0.0,0.0,81,0.00,CLR,,0.00,WeatherDisplay:10.37,2013-07-11 01:35:00,
2013-07-10 20:40:00,81.6,74.8,29.87,NW,319,0.0,0.0,80,0.00,CLR,,0.00,WeatherDisplay:10.37,2013-07-11 01:40:00,
2013-07-10 20:45:00,81.2,74.8,29.87,NW,319,0.0,0.0,81,0.00,CLR,,0.00,WeatherDisplay:10.37,2013-07-11 01:45:00,
2013-07-10 20:50:00,80.9,74.9,29.87,NW,319,0.0,0.0,82,0.00,CLR,,0.00,WeatherDisplay:10.37,2013-07-11 01:50:00,
2013-07-10 20:55:00,80.7,75.1,29.87,NW,319,0.0,0.0,83,0.00,CLR,,0.00,WeatherDisplay:10.37,2013-07-11 01:55:00,
2013-07-10 21:00:00,80.5,75.2,29.87,NW,319,0.0,0.0,84,0.00,CLR,,0.00,WeatherDisplay:10.37,2013-07-11 02:00:00,
2013-07-10 21:05:00,80.4,75.1,29.87,NW,319,0.0,0.0,84,0.00,CLR,,0.00,WeatherDisplay:10.37,2013-07-11 02:05:00,
2013-07-10 21:10:00,80.2,74.9,29.87,NW,319,0.0,0.0,84,0.00,CLR,,0.00,WeatherDisplay:10.37,2013-07-11 02:10:00,
2013-07-10 21:15:00,80.1,75.2,29.88,NW,319,0.0,0.0,85,0.00,CLR,,0.00,WeatherDisplay:10.37,2013-07-11 02:15:00,
2013-07-10 21:20:00,79.9,75.0,29.88,NW,319,0.0,0.0,85,0.00,CLR,,0.00,WeatherDisplay:10.37,2013-07-11 02:20:00,
2013-07-10 21:25:00,79.7,74.8,29.88,NW,319,0.0,0.0,85,0.00,CLR,,0.00,WeatherDisplay:10.37,2013-07-11 02:25:00,
2013-07-10 21:30:00,79.6,74.7,29.88,NW,319,0.0,0.0,85,0.00,CLR,,0.00,WeatherDisplay:10.37,2013-07-11 02:30:00,
2013-07-10 21:35:00,79.4,74.5,29.88,NW,319,0.0,0.0,85,0.00,CLR,,0.00,WeatherDisplay:10.37,2013-07-11 02:35:00,
2013-07-10 21:40:00,79.2,74.6,29.88,NW,319,0.0,0.0,86,0.00,CLR,,0.00,WeatherDisplay:10.37,2013-07-11 02:40:00,
2013-07-10 21:46:00,79.0,74.5,29.88,NW,319,0.0,0.0,86,0.00,CLR,,0.00,WeatherDisplay:10.37,2013-07-11 02:46:00,
2013-07-10 21:51:00,78.7,74.5,29.88,NW,319,0.0,0.0,87,0.00,CLR,,0.00,WeatherDisplay:10.37,2013-07-11 02:51:00,
2013-07-10 21:56:00,78.4,74.2,29.88,NW,319,0.0,0.0,87,0.00,CLR,,0.00,WeatherDisplay:10.37,2013-07-11 02:56:00,
2013-07-10 22:01:00,78.2,74.0,29.88,NW,319,0.0,0.0,87,0.00,CLR,,0.00,WeatherDisplay:10.37,2013-07-11 03:01:00,
2013-07-10 22:06:00,77.9,73.7,29.88,NW,319,0.0,0.0,87,0.00,CLR,,0.00,WeatherDisplay:10.37,2013-07-11 03:06:00,
2013-07-10 22:11:00,77.7,73.9,29.88,NW,319,0.0,0.0,88,0.00,CLR,,0.00,WeatherDisplay:10.37,2013-07-11 03:11:00,
2013-07-10 22:16:00,77.6,73.8,29.88,NW,319,0.0,0.0,88,0.00,CLR,,0.00,WeatherDisplay:10.37,2013-07-11 03:16:00,
2013-07-10 22:21:00,77.5,73.7,29.88,NW,319,0.0,0.0,88,0.00,CLR,,0.00,WeatherDisplay:10.37,2013-07-11 03:21:00,
2013-07-10 22:26:00,77.3,73.5,29.88,NW,319,0.0,0.0,88,0.00,CLR,,0.00,WeatherDisplay:10.37,2013-07-11 03:26:00,
2013-07-10 22:31:00,77.2,73.4,29.88,NW,319,0.0,0.0,88,0.00,CLR,,0.00,WeatherDisplay:10.37,2013-07-11 03:31:00,
2013-07-10 22:36:00,77.0,73.5,29.87,NW,319,0.0,0.0,89,0.00,CLR,,0.00,WeatherDisplay:10.37,2013-07-11 03:36:00,
2013-07-10 22:41:00,76.8,73.3,29.87,NW,319,0.0,0.0,89,0.00,CLR,,0.00,WeatherDisplay:10.37,2013-07-11 03:41:00,
2013-07-10 22:46:00,76.6,73.4,29.87,NW,319,0.0,0.0,90,0.00,CLR,,0.00,WeatherDisplay:10.37,2013-07-11 03:46:00,
2013-07-10 22:51:00,76.4,73.2,29.87,NW,319,0.0,0.0,90,0.00,CLR,,0.00,WeatherDisplay:10.37,2013-07-11 03:51:00,
2013-07-10 22:56:00,76.3,73.1,29.87,NW,319,0.0,0.0,90,0.00,CLR,,0.00,WeatherDisplay:10.37,2013-07-11 03:56:00,
2013-07-10 23:01:00,76.2,73.1,29.88,NW,319,0.0,0.0,90,0.00,CLR,,0.00,WeatherDisplay:10.37,2013-07-11 04:01:00,
2013-07-10 23:06:00,76.1,73.0,29.88,NW,319,0.0,0.0,90,0.00,CLR,,0.00,WeatherDisplay:10.37,2013-07-11 04:06:00,
2013-07-10 23:11:00,76.0,72.9,29.88,NW,319,0.0,0.0,90,0.00,CLR,,0.00,WeatherDisplay:10.37,2013-07-11 04:11:00,
2013-07-10 23:16:00,75.9,72.8,29.88,NW,319,0.0,0.0,90,0.00,CLR,,0.00,WeatherDisplay:10.37,2013-07-11 04:16:00,
2013-07-10 23:21:00,75.8,72.7,29.88,NW,319,0.0,0.0,90,0.00,CLR,,0.00,WeatherDisplay:10.37,2013-07-11 04:21:00,
2013-07-10 23:26:00,75.7,72.6,29.88,NW,319,0.0,0.0,90,0.00,CLR,,0.00,WeatherDisplay:10.37,2013-07-11 04:26:00,
2013-07-10 23:31:00,75.6,72.8,29.88,NW,319,0.0,0.0,91,0.00,CLR,,0.00,WeatherDisplay:10.37,2013-07-11 04:31:00,
2013-07-10 23:36:00,75.5,72.7,29.88,NW,319,0.0,0.0,91,0.00,CLR,,0.00,WeatherDisplay:10.37,2013-07-11 04:36:00,
2013-07-10 23:41:00,75.4,72.6,29.88,NW,319,0.0,0.0,91,0.00,CLR,,0.00,WeatherDisplay:10.37,2013-07-11 04:41:00,
2013-07-10 23:46:00,75.4,72.6,29.87,NW,319,0.0,0.0,91,0.00,CLR,,0.00,WeatherDisplay:10.37,2013-07-11 04:46:00,
2013-07-10 23:51:00,75.3,72.5,29.87,NW,319,0.0,0.0,91,0.00,CLR,,0.00,WeatherDisplay:10.37,2013-07-11 04:51:00,
2013-07-10 23:56:00,75.2,72.4,29.87,NW,319,0.0,0.0,91,0.00,CLR,,0.00,WeatherDisplay:10.37,2013-07-11 04:56:00,